createdAt,value
2016-08-04T00:00:08.440Z,0
2016-08-04T00:01:07.895Z,0
2016-08-04T00:02:09.443Z,0
2016-08-04T00:03:10.294Z,0
2016-08-04T00:04:10.291Z,0
2016-08-04T00:05:09.859Z,0
2016-08-04T00:06:09.861Z,0
2016-08-04T00:07:10.257Z,0
2016-08-04T00:08:08.200Z,0
2016-08-04T00:09:08.842Z,0
2016-08-04T00:10:09.758Z,0
2016-08-04T00:11:09.087Z,0
2016-08-04T00:12:09.754Z,0
2016-08-04T00:13:09.659Z,0
2016-08-04T00:14:10.089Z,0
2016-08-04T00:15:11.467Z,0
2016-08-04T00:16:09.138Z,0
2016-08-04T00:17:09.370Z,0
2016-08-04T00:18:09.301Z,0
2016-08-04T00:19:09.317Z,0
2016-08-04T00:20:11.646Z,0
2016-08-04T00:21:08.215Z,0
2016-08-04T00:22:10.490Z,0
2016-08-04T00:23:09.270Z,0
2016-08-04T00:24:10.287Z,0
2016-08-04T00:25:10.225Z,0
2016-08-04T00:26:10.316Z,0
2016-08-04T00:27:09.357Z,0
2016-08-04T00:28:08.739Z,0
2016-08-04T00:29:08.846Z,0
2016-08-04T00:30:09.998Z,0
2016-08-04T00:31:10.150Z,0
2016-08-04T00:32:09.611Z,0
2016-08-04T00:33:09.755Z,0
2016-08-04T00:34:11.541Z,0
2016-08-04T00:35:11.371Z,0
2016-08-04T00:36:10.543Z,0
2016-08-04T00:37:09.123Z,0
2016-08-04T00:38:09.746Z,0
2016-08-04T00:39:09.622Z,0
2016-08-04T00:40:11.776Z,0
2016-08-04T00:41:09.544Z,0
2016-08-04T00:42:09.720Z,0
2016-08-04T00:43:09.896Z,0
2016-08-04T00:44:11.283Z,0
2016-08-04T00:45:10.733Z,0
2016-08-04T00:46:10.215Z,0
2016-08-04T00:47:09.285Z,0
2016-08-04T00:48:10.964Z,0
2016-08-04T00:49:10.879Z,0
2016-08-04T00:50:09.351Z,0
2016-08-04T00:51:11.867Z,0
2016-08-04T00:52:09.734Z,0
2016-08-04T00:53:09.390Z,0
2016-08-04T00:54:10.609Z,0
2016-08-04T00:55:10.071Z,0
2016-08-04T00:56:10.260Z,0
2016-08-04T00:57:10.859Z,0
2016-08-04T00:58:10.246Z,0
2016-08-04T00:59:10.930Z,0
2016-08-04T01:00:10.897Z,0
2016-08-04T01:01:10.577Z,0
2016-08-04T01:02:11.163Z,0
2016-08-04T01:03:10.375Z,0
2016-08-04T01:04:10.940Z,0
2016-08-04T01:05:13.258Z,0
2016-08-04T01:06:11.918Z,0
2016-08-04T01:07:11.057Z,0
2016-08-04T01:08:11.987Z,0
2016-08-04T01:09:10.879Z,0
2016-08-04T01:10:09.763Z,0
2016-08-04T01:11:11.022Z,0
2016-08-04T01:12:10.973Z,0
2016-08-04T01:13:10.647Z,0
2016-08-04T01:14:12.760Z,0
2016-08-04T01:15:12.280Z,0
2016-08-04T01:16:11.640Z,0
2016-08-04T01:17:11.515Z,0
2016-08-04T01:18:12.363Z,0
2016-08-04T01:19:12.137Z,0
2016-08-04T01:20:11.214Z,0
2016-08-04T01:21:11.109Z,0
2016-08-04T01:22:11.308Z,0
2016-08-04T01:23:11.855Z,0
2016-08-04T01:24:12.488Z,0
2016-08-04T01:25:11.544Z,0
2016-08-04T01:26:12.230Z,0
2016-08-04T01:27:10.762Z,0
2016-08-04T01:28:11.453Z,0
2016-08-04T01:29:14.202Z,0
2016-08-04T01:30:11.340Z,0
2016-08-04T01:31:12.795Z,0
2016-08-04T01:32:12.791Z,0
2016-08-04T01:33:11.998Z,0
2016-08-04T01:34:11.794Z,0
2016-08-04T01:35:11.786Z,0
2016-08-04T01:36:12.483Z,0
2016-08-04T01:37:11.906Z,0
2016-08-04T01:38:11.801Z,0
2016-08-04T01:39:10.863Z,0
2016-08-04T01:40:12.099Z,0
2016-08-04T01:41:11.095Z,0
2016-08-04T01:42:11.092Z,0
2016-08-04T01:43:12.956Z,0
2016-08-04T01:44:11.896Z,0
2016-08-04T01:45:12.683Z,0
2016-08-04T01:46:12.327Z,0
2016-08-04T01:47:12.778Z,0
2016-08-04T01:48:12.031Z,0
2016-08-04T01:49:12.173Z,0
2016-08-04T01:50:12.377Z,0
2016-08-04T01:51:12.310Z,0
2016-08-04T01:52:11.433Z,0
2016-08-04T01:53:12.247Z,0
2016-08-04T01:54:11.755Z,0
2016-08-04T01:55:12.918Z,0
2016-08-04T01:56:11.606Z,0
2016-08-04T01:57:13.087Z,0
2016-08-04T01:58:13.997Z,0
2016-08-04T01:59:12.221Z,0
2016-08-04T02:00:11.879Z,0
2016-08-04T02:01:17.313Z,0
2016-08-04T02:02:11.516Z,0
2016-08-04T02:03:10.856Z,0
2016-08-04T02:04:12.839Z,0
2016-08-04T02:05:12.874Z,0
2016-08-04T02:06:14.590Z,0
2016-08-04T02:07:12.662Z,0
2016-08-04T02:08:13.810Z,0
2016-08-04T02:09:12.340Z,0
2016-08-04T02:10:14.494Z,0
2016-08-04T02:11:12.869Z,0
2016-08-04T02:12:13.004Z,0
2016-08-04T02:13:12.608Z,0
2016-08-04T02:14:11.780Z,0
2016-08-04T02:15:12.817Z,0
2016-08-04T02:16:13.078Z,0
2016-08-04T02:17:12.206Z,0
2016-08-04T02:18:13.032Z,0
2016-08-04T02:19:13.346Z,0
2016-08-04T02:21:13.642Z,0
2016-08-04T02:22:14.016Z,0
2016-08-04T02:23:12.707Z,0
2016-08-04T02:24:13.035Z,0
2016-08-04T02:25:12.645Z,0
2016-08-04T02:26:14.216Z,0
2016-08-04T02:27:12.356Z,0
2016-08-04T02:28:11.996Z,0
2016-08-04T02:29:14.412Z,0
2016-08-04T02:30:14.878Z,0
2016-08-04T02:31:14.081Z,0
2016-08-04T02:32:12.595Z,0
2016-08-04T02:33:14.949Z,0
2016-08-04T02:34:12.094Z,0
2016-08-04T02:35:13.064Z,0
2016-08-04T02:36:13.336Z,0
2016-08-04T02:37:12.508Z,0
2016-08-04T02:38:13.833Z,0
2016-08-04T02:39:13.485Z,0
2016-08-04T02:40:13.203Z,0
2016-08-04T02:41:13.505Z,0
2016-08-04T02:42:14.797Z,0
2016-08-04T02:43:13.990Z,0
2016-08-04T02:44:14.063Z,0
2016-08-04T02:45:12.177Z,0
2016-08-04T02:46:14.625Z,0
2016-08-04T02:47:13.878Z,0
2016-08-04T02:48:13.721Z,0
2016-08-04T02:49:13.915Z,0
2016-08-04T02:50:12.554Z,0
2016-08-04T02:51:14.739Z,0
2016-08-04T02:52:13.960Z,0
2016-08-04T02:53:14.585Z,0
2016-08-04T02:54:15.190Z,0
2016-08-04T02:55:13.012Z,0
2016-08-04T02:56:14.339Z,0
2016-08-04T02:57:15.752Z,0
2016-08-04T02:58:15.270Z,0
2016-08-04T02:59:13.083Z,0
2016-08-04T03:00:15.341Z,0
2016-08-04T03:01:13.693Z,0
2016-08-04T03:02:12.816Z,0
2016-08-04T03:03:15.066Z,0
2016-08-04T03:04:14.239Z,0
2016-08-04T03:05:15.661Z,0
2016-08-04T03:06:14.425Z,0
2016-08-04T03:07:14.758Z,0
2016-08-04T03:08:14.822Z,0
2016-08-04T03:09:14.878Z,0
2016-08-04T03:10:13.964Z,0
2016-08-04T03:11:14.844Z,0
2016-08-04T03:12:14.417Z,0
2016-08-04T03:13:16.173Z,0
2016-08-04T03:14:14.834Z,0
2016-08-04T03:15:12.680Z,0
2016-08-04T03:16:15.360Z,0
2016-08-04T03:17:14.449Z,0
2016-08-04T03:18:13.042Z,4
2016-08-04T03:19:15.102Z,4
2016-08-04T03:20:13.631Z,0
2016-08-04T03:21:14.024Z,4
2016-08-04T03:22:15.765Z,4
2016-08-04T03:23:14.916Z,4
2016-08-04T03:24:15.257Z,4
2016-08-04T03:25:15.547Z,4
2016-08-04T03:26:16.547Z,4
2016-08-04T03:27:16.869Z,8
2016-08-04T03:28:13.921Z,8
2016-08-04T03:29:17.174Z,12
2016-08-04T03:30:14.312Z,12
2016-08-04T03:31:16.827Z,20
2016-08-04T03:32:15.478Z,20
2016-08-04T03:33:16.087Z,24
2016-08-04T03:34:14.581Z,24
2016-08-04T03:35:14.697Z,28
2016-08-04T03:36:15.169Z,36
2016-08-04T03:37:15.465Z,40
2016-08-04T03:38:16.853Z,44
2016-08-04T03:39:16.621Z,48
2016-08-04T03:40:15.812Z,48
2016-08-04T03:41:14.878Z,48
2016-08-04T03:42:14.890Z,44
2016-08-04T03:43:14.601Z,52
2016-08-04T03:44:16.399Z,56
2016-08-04T03:45:15.010Z,68
2016-08-04T03:46:14.955Z,72
2016-08-04T03:47:15.247Z,76
2016-08-04T03:48:14.428Z,76
2016-08-04T03:49:15.384Z,88
2016-08-04T03:50:15.266Z,104
2016-08-04T03:51:14.905Z,124
2016-08-04T03:52:14.829Z,152
2016-08-04T03:53:16.938Z,212
2016-08-04T03:54:14.970Z,292
2016-08-04T03:55:18.013Z,388
2016-08-04T03:56:15.486Z,460
2016-08-04T03:57:14.738Z,504
2016-08-04T03:58:16.737Z,444
2016-08-04T03:59:14.853Z,424
2016-08-04T04:00:15.290Z,440
2016-08-04T04:01:16.719Z,420
2016-08-04T04:02:14.231Z,384
2016-08-04T04:03:14.776Z,384
2016-08-04T04:04:15.497Z,416
2016-08-04T04:05:14.801Z,480
2016-08-04T04:06:16.887Z,564
2016-08-04T04:07:14.724Z,640
2016-08-04T04:08:15.843Z,692
2016-08-04T04:09:15.737Z,692
2016-08-04T04:10:15.448Z,668
2016-08-04T04:11:15.362Z,660
2016-08-04T04:12:17.438Z,680
2016-08-04T04:13:16.335Z,700
2016-08-04T04:14:15.932Z,700
2016-08-04T04:15:14.576Z,664
2016-08-04T04:16:16.553Z,624
2016-08-04T04:17:16.331Z,612
2016-08-04T04:18:15.165Z,652
2016-08-04T04:19:15.327Z,680
2016-08-04T04:20:16.730Z,692
2016-08-04T04:21:15.584Z,688
2016-08-04T04:22:15.582Z,636
2016-08-04T04:23:15.921Z,576
2016-08-04T04:24:16.094Z,552
2016-08-04T04:25:15.876Z,596
2016-08-04T04:26:14.580Z,680
2016-08-04T04:27:15.450Z,764
2016-08-04T04:28:15.080Z,812
2016-08-04T04:29:16.361Z,936
2016-08-04T04:30:14.737Z,1092
2016-08-04T04:31:15.959Z,1160
2016-08-04T04:32:14.739Z,1232
2016-08-04T04:33:16.952Z,1264
2016-08-04T04:34:16.200Z,1292
2016-08-04T04:35:16.186Z,1364
2016-08-04T04:36:16.100Z,1524
2016-08-04T04:37:15.807Z,1796
2016-08-04T04:38:16.706Z,2028
2016-08-04T04:39:17.872Z,2392
2016-08-04T04:40:16.913Z,2592
2016-08-04T04:41:16.897Z,2484
2016-08-04T04:42:17.394Z,2484
2016-08-04T04:43:15.903Z,2464
2016-08-04T04:44:16.501Z,2524
2016-08-04T04:45:16.924Z,2604
2016-08-04T04:46:17.108Z,2664
2016-08-04T04:47:16.833Z,2540
2016-08-04T04:48:16.850Z,2216
2016-08-04T04:49:17.330Z,2120
2016-08-04T04:50:15.266Z,2244
2016-08-04T04:51:16.197Z,2548
2016-08-04T04:52:15.834Z,2932
2016-08-04T04:53:17.213Z,3040
2016-08-04T04:54:16.841Z,2864
2016-08-04T04:55:17.789Z,2404
2016-08-04T04:56:17.983Z,2136
2016-08-04T04:57:16.101Z,2260
2016-08-04T04:58:17.362Z,2492
2016-08-04T04:59:16.865Z,2636
2016-08-04T05:00:17.922Z,2724
2016-08-04T05:01:18.084Z,2848
2016-08-04T05:02:16.083Z,2736
2016-08-04T05:03:17.472Z,2420
2016-08-04T05:04:16.333Z,2324
2016-08-04T05:05:15.733Z,2584
2016-08-04T05:06:16.027Z,2992
2016-08-04T05:07:17.564Z,3544
2016-08-04T05:08:17.334Z,4176
2016-08-04T05:09:17.770Z,4540
2016-08-04T05:10:16.921Z,4608
2016-08-04T05:11:16.599Z,4604
2016-08-04T05:12:17.742Z,4576
2016-08-04T05:13:15.705Z,4508
2016-08-04T05:14:17.336Z,4432
2016-08-04T05:15:19.946Z,4200
2016-08-04T05:16:18.890Z,4008
2016-08-04T05:17:19.546Z,4228
2016-08-04T05:18:17.384Z,3992
2016-08-04T05:19:17.892Z,3240
2016-08-04T05:20:17.057Z,2936
2016-08-04T05:21:17.334Z,3000
2016-08-04T05:22:17.381Z,3420
2016-08-04T05:23:17.762Z,3912
2016-08-04T05:24:16.536Z,4148
2016-08-04T05:25:16.620Z,4608
2016-08-04T05:26:16.551Z,4936
2016-08-04T05:27:17.909Z,4972
2016-08-04T05:28:18.394Z,5276
2016-08-04T05:29:18.006Z,5536
2016-08-04T05:30:17.374Z,5924
2016-08-04T05:31:16.243Z,6560
2016-08-04T05:32:17.604Z,7408
2016-08-04T05:33:15.988Z,8212
2016-08-04T05:34:17.868Z,8812
2016-08-04T05:35:18.731Z,9344
2016-08-04T05:36:17.412Z,9368
2016-08-04T05:37:18.068Z,8512
2016-08-04T05:38:18.255Z,8036
2016-08-04T05:39:18.288Z,7640
2016-08-04T05:40:17.721Z,7200
2016-08-04T05:41:17.679Z,6796
2016-08-04T05:42:18.882Z,6452
2016-08-04T05:43:16.810Z,5944
2016-08-04T05:44:18.271Z,5068
2016-08-04T05:45:16.766Z,4964
2016-08-04T05:46:18.297Z,4956
2016-08-04T05:47:17.770Z,4964
2016-08-04T05:48:18.163Z,4668
2016-08-04T05:49:18.201Z,4348
2016-08-04T05:50:20.166Z,4504
2016-08-04T05:51:17.944Z,4768
2016-08-04T05:52:18.604Z,4928
2016-08-04T05:53:18.752Z,5312
2016-08-04T05:54:19.387Z,5704
2016-08-04T05:55:18.966Z,5796
2016-08-04T05:56:18.453Z,6076
2016-08-04T05:57:19.196Z,5916
2016-08-04T05:58:19.265Z,5484
2016-08-04T05:59:18.118Z,4812
2016-08-04T06:00:19.037Z,5224
2016-08-04T06:01:17.700Z,6636
2016-08-04T06:02:20.672Z,7972
2016-08-04T06:03:17.803Z,8560
2016-08-04T06:04:18.222Z,9076
2016-08-04T06:05:20.005Z,9912
2016-08-04T06:07:18.150Z,11108
2016-08-04T06:08:19.437Z,12132
2016-08-04T06:09:18.951Z,13348
2016-08-04T06:10:17.994Z,14416
2016-08-04T06:11:18.523Z,14516
2016-08-04T06:12:18.701Z,14072
2016-08-04T06:13:18.535Z,14604
2016-08-04T06:14:17.504Z,15684
2016-08-04T06:15:18.321Z,17088
2016-08-04T06:16:19.068Z,16672
2016-08-04T06:17:20.127Z,14372
2016-08-04T06:18:18.983Z,11444
2016-08-04T06:19:18.533Z,9592
2016-08-04T06:20:20.913Z,9028
2016-08-04T06:22:19.248Z,8940
2016-08-04T06:23:19.279Z,9252
2016-08-04T06:24:19.884Z,9740
2016-08-04T06:25:20.163Z,10104
2016-08-04T06:26:19.911Z,9940
2016-08-04T06:27:19.406Z,9572
2016-08-04T06:28:20.247Z,9612
2016-08-04T06:29:21.870Z,10240
2016-08-04T06:30:22.401Z,9760
2016-08-04T06:31:20.157Z,9188
2016-08-04T06:32:18.642Z,9064
2016-08-04T06:33:18.174Z,8972
2016-08-04T06:34:19.173Z,9140
2016-08-04T06:35:21.703Z,9512
2016-08-04T06:37:20.427Z,8916
2016-08-04T06:38:18.771Z,8640
2016-08-04T06:39:18.228Z,8780
2016-08-04T06:40:18.423Z,9036
2016-08-04T06:41:19.139Z,9368
2016-08-04T06:42:19.853Z,9884
2016-08-04T06:43:20.256Z,10372
2016-08-04T06:44:20.659Z,11036
2016-08-04T06:45:19.751Z,11748
2016-08-04T06:46:20.814Z,12072
2016-08-04T06:47:19.024Z,11920
2016-08-04T06:48:19.646Z,12092
2016-08-04T06:49:20.219Z,12416
2016-08-04T06:50:20.182Z,11540
2016-08-04T06:52:19.585Z,7664
2016-08-04T06:53:19.601Z,7648
2016-08-04T06:54:19.752Z,8464
2016-08-04T06:55:18.999Z,9204
2016-08-04T06:56:19.731Z,10304
2016-08-04T06:57:19.102Z,11556
2016-08-04T06:58:19.734Z,12632
2016-08-04T06:59:20.328Z,13216
2016-08-04T07:00:20.998Z,12908
2016-08-04T07:01:21.646Z,12180
2016-08-04T07:02:21.357Z,11092
2016-08-04T07:03:20.143Z,11832
2016-08-04T07:04:21.316Z,13968
2016-08-04T07:05:20.410Z,15580
2016-08-04T07:07:21.579Z,15868
2016-08-04T07:08:20.931Z,15140
2016-08-04T07:09:21.506Z,15500
2016-08-04T07:10:19.919Z,16032
2016-08-04T07:11:20.308Z,15808
2016-08-04T07:12:19.998Z,15520
2016-08-04T07:13:19.402Z,16260
2016-08-04T07:14:19.416Z,18080
2016-08-04T07:15:20.801Z,20416
2016-08-04T07:16:20.929Z,22816
2016-08-04T07:17:20.265Z,23872
2016-08-04T07:18:18.897Z,24224
2016-08-04T07:19:20.338Z,24160
2016-08-04T07:20:21.881Z,23680
2016-08-04T07:22:20.779Z,21568
2016-08-04T07:23:20.558Z,20768
2016-08-04T07:24:21.444Z,20480
2016-08-04T07:25:20.207Z,20800
2016-08-04T07:26:20.250Z,21216
2016-08-04T07:27:20.473Z,21440
2016-08-04T07:28:20.252Z,21440
2016-08-04T07:29:22.121Z,21408
2016-08-04T07:30:20.436Z,21312
2016-08-04T07:31:21.651Z,20320
2016-08-04T07:32:19.386Z,18272
2016-08-04T07:33:20.785Z,16220
2016-08-04T07:34:20.166Z,16220
2016-08-04T07:35:20.501Z,18016
2016-08-04T07:37:20.119Z,15832
2016-08-04T07:38:22.200Z,14684
2016-08-04T07:39:22.768Z,14700
2016-08-04T07:40:21.347Z,15976
2016-08-04T07:41:21.128Z,17920
2016-08-04T07:42:20.654Z,19744
2016-08-04T07:43:21.522Z,19968
2016-08-04T07:44:21.637Z,17024
2016-08-04T07:45:20.188Z,13936
2016-08-04T07:46:20.985Z,13212
2016-08-04T07:47:20.421Z,14200
2016-08-04T07:48:23.061Z,14816
2016-08-04T07:49:21.350Z,15228
2016-08-04T07:50:21.133Z,16384
2016-08-04T07:52:22.375Z,18752
2016-08-04T07:53:20.824Z,19872
2016-08-04T07:54:21.104Z,20032
2016-08-04T07:55:22.633Z,19200
2016-08-04T07:56:23.264Z,18336
2016-08-04T07:57:22.934Z,17632
2016-08-04T07:58:21.132Z,17440
2016-08-04T07:59:23.289Z,17824
2016-08-04T08:00:23.143Z,18112
2016-08-04T08:01:20.729Z,17184
2016-08-04T08:02:22.059Z,15460
2016-08-04T08:03:21.817Z,14560
2016-08-04T08:04:22.016Z,14556
2016-08-04T08:05:21.573Z,15812
2016-08-04T08:07:22.983Z,21376
2016-08-04T08:08:21.916Z,24768
2016-08-04T08:09:22.525Z,28896
2016-08-04T08:10:22.521Z,32320
2016-08-04T08:11:22.559Z,37472
2016-08-04T08:12:22.704Z,36288
2016-08-04T08:13:24.528Z,36224
2016-08-04T08:14:21.687Z,35552
2016-08-04T08:15:22.364Z,35168
2016-08-04T08:16:23.953Z,36032
2016-08-04T08:17:21.147Z,37696
2016-08-04T08:18:23.891Z,47104
2016-08-04T08:19:22.365Z,39328
2016-08-04T08:20:22.674Z,43296
2016-08-04T08:22:22.190Z,47872
2016-08-04T08:23:22.295Z,44896
2016-08-04T08:24:21.574Z,40864
2016-08-04T08:25:21.459Z,49248
2016-08-04T08:26:23.440Z,53568
2016-08-04T08:27:25.049Z,48064
2016-08-04T08:28:23.790Z,46528
2016-08-04T08:29:22.209Z,38784
2016-08-04T08:30:21.424Z,41184
2016-08-04T08:31:23.024Z,42240
2016-08-04T08:32:24.304Z,43456
2016-08-04T08:33:23.352Z,43104
2016-08-04T08:34:22.783Z,39616
2016-08-04T08:35:22.466Z,35136
2016-08-04T08:36:22.733Z,39296
2016-08-04T08:37:23.124Z,47136
2016-08-04T08:38:23.940Z,56704
2016-08-04T08:39:22.821Z,53216
2016-08-04T08:40:22.525Z,55136
2016-08-04T08:41:23.523Z,58112
2016-08-04T08:42:23.327Z,57056
2016-08-04T08:43:22.125Z,54080
2016-08-04T08:44:21.859Z,59072
2016-08-04T08:45:22.802Z,69856
2016-08-04T08:46:24.056Z,61152
2016-08-04T08:47:24.369Z,63936
2016-08-04T08:48:22.474Z,73472
2016-08-04T08:49:22.487Z,76384
2016-08-04T08:50:24.139Z,77824
2016-08-04T08:51:22.789Z,81824
2016-08-04T08:52:23.859Z,71040
2016-08-04T08:53:23.662Z,52512
2016-08-04T08:54:23.663Z,43488
2016-08-04T08:55:22.349Z,63104
2016-08-04T08:56:23.267Z,33728
2016-08-04T08:57:24.167Z,32832
2016-08-04T08:58:23.668Z,34368
2016-08-04T08:59:25.352Z,34848
2016-08-04T09:00:25.349Z,33952
2016-08-04T09:01:22.429Z,33760
2016-08-04T09:02:22.592Z,33856
2016-08-04T09:03:25.057Z,35968
2016-08-04T09:04:23.810Z,34080
2016-08-04T09:05:22.637Z,39712
2016-08-04T09:06:24.665Z,36992
2016-08-04T09:07:23.492Z,38144
2016-08-04T09:08:23.947Z,41152
2016-08-04T09:09:23.814Z,36000
2016-08-04T09:10:23.225Z,36832
2016-08-04T09:11:22.993Z,43488
2016-08-04T09:12:22.876Z,39744
2016-08-04T09:13:23.387Z,44544
2016-08-04T09:14:22.133Z,44096
2016-08-04T09:15:23.467Z,41280
2016-08-04T09:16:22.351Z,38304
2016-08-04T09:17:23.894Z,38688
2016-08-04T09:18:22.553Z,37760
2016-08-04T09:19:23.818Z,35616
2016-08-04T09:20:25.591Z,39808
2016-08-04T09:21:23.637Z,39680
2016-08-04T09:22:23.653Z,45120
2016-08-04T09:23:23.795Z,46336
2016-08-04T09:24:24.317Z,58848
2016-08-04T09:25:24.705Z,47520
2016-08-04T09:26:24.670Z,74048
2016-08-04T09:27:23.950Z,55648
2016-08-04T09:28:24.090Z,60128
2016-08-04T09:29:24.460Z,54656
2016-08-04T09:30:24.338Z,74720
2016-08-04T09:31:25.802Z,65024
2016-08-04T09:32:24.815Z,62048
2016-08-04T09:33:24.616Z,72608
2016-08-04T09:34:23.792Z,56640
2016-08-04T09:35:24.586Z,68160
2016-08-04T09:36:25.002Z,58016
2016-08-04T09:37:25.941Z,38720
2016-08-04T09:38:24.210Z,34112
2016-08-04T09:39:26.077Z,34112
2016-08-04T09:40:25.202Z,30624
2016-08-04T09:41:24.135Z,29088
2016-08-04T09:42:25.136Z,27648
2016-08-04T09:43:23.859Z,29888
2016-08-04T09:44:24.649Z,30976
2016-08-04T09:45:24.508Z,31328
2016-08-04T09:46:25.186Z,32384
2016-08-04T09:47:25.731Z,38912
2016-08-04T09:48:25.098Z,52128
2016-08-04T09:49:24.186Z,48320
2016-08-04T09:50:26.048Z,53952
2016-08-04T09:51:27.138Z,47136
2016-08-04T09:52:24.919Z,44160
2016-08-04T09:53:24.948Z,63104
2016-08-04T09:54:24.154Z,58304
2016-08-04T09:55:24.005Z,51392
2016-08-04T09:56:25.753Z,53408
2016-08-04T09:57:26.072Z,46112
2016-08-04T09:58:24.586Z,45792
2016-08-04T09:59:26.669Z,41792
2016-08-04T10:00:25.069Z,38304
2016-08-04T10:01:24.715Z,36832
2016-08-04T10:02:24.251Z,35904
2016-08-04T10:03:26.019Z,33376
2016-08-04T10:04:25.224Z,31552
2016-08-04T10:05:26.322Z,29888
2016-08-04T10:06:26.426Z,28928
2016-08-04T10:07:25.559Z,29408
2016-08-04T10:08:25.365Z,29696
2016-08-04T10:09:25.639Z,28864
2016-08-04T10:10:24.604Z,28128
2016-08-04T10:11:24.667Z,27776
2016-08-04T10:12:24.804Z,27456
2016-08-04T10:13:25.898Z,26208
2016-08-04T10:14:26.485Z,25280
2016-08-04T10:15:25.864Z,25280
2016-08-04T10:16:24.590Z,25920
2016-08-04T10:17:26.577Z,27040
2016-08-04T10:18:28.263Z,28384
2016-08-04T10:19:27.316Z,29920
2016-08-04T10:20:26.275Z,31200
2016-08-04T10:21:27.386Z,32192
2016-08-04T10:22:25.202Z,33760
2016-08-04T10:23:26.385Z,35808
2016-08-04T10:24:27.482Z,38048
2016-08-04T10:25:26.278Z,36000
2016-08-04T10:26:25.208Z,37664
2016-08-04T10:27:25.598Z,37888
2016-08-04T10:28:26.055Z,39744
2016-08-04T10:29:26.998Z,41344
2016-08-04T10:30:25.616Z,37600
2016-08-04T10:31:26.017Z,34624
2016-08-04T10:32:25.111Z,32832
2016-08-04T10:33:26.463Z,33888
2016-08-04T10:34:24.663Z,37760
2016-08-04T10:35:27.638Z,35648
2016-08-04T10:36:26.943Z,36096
2016-08-04T10:37:26.426Z,33728
2016-08-04T10:38:25.989Z,34560
2016-08-04T10:39:26.580Z,37152
2016-08-04T10:40:28.339Z,45024
2016-08-04T10:41:27.872Z,54240
2016-08-04T10:42:26.045Z,58688
2016-08-04T10:43:26.065Z,55584
2016-08-04T10:44:26.663Z,54464
2016-08-04T10:45:26.222Z,50656
2016-08-04T10:46:28.220Z,61536
2016-08-04T10:47:26.081Z,60320
2016-08-04T10:48:27.080Z,58944
2016-08-04T10:49:27.803Z,59104
2016-08-04T10:50:27.322Z,52032
2016-08-04T10:51:27.455Z,45056
2016-08-04T10:52:27.884Z,53152
2016-08-04T10:53:26.826Z,51008
2016-08-04T10:54:27.541Z,49728
2016-08-04T10:55:26.995Z,56736
2016-08-04T10:56:26.538Z,70880
2016-08-04T10:57:25.876Z,64384
2016-08-04T10:58:26.919Z,62432
2016-08-04T10:59:27.954Z,61152
2016-08-04T11:00:26.365Z,48544
2016-08-04T11:01:26.808Z,59840
2016-08-04T11:02:28.636Z,75424
2016-08-04T11:03:28.069Z,73280
2016-08-04T11:04:27.464Z,68608
2016-08-04T11:05:26.966Z,49024
2016-08-04T11:06:28.307Z,44128
2016-08-04T11:07:26.750Z,62208
2016-08-04T11:08:27.556Z,46112
2016-08-04T11:09:27.713Z,46112
2016-08-04T11:10:28.292Z,43968
2016-08-04T11:11:27.323Z,68416
2016-08-04T11:12:28.781Z,63136
2016-08-04T11:13:27.179Z,53440
2016-08-04T11:14:27.195Z,54656
2016-08-04T11:15:27.138Z,56064
2016-08-04T11:16:27.275Z,62048
2016-08-04T11:17:26.727Z,63360
2016-08-04T11:18:28.386Z,61088
2016-08-04T11:19:29.254Z,68384
2016-08-04T11:20:27.658Z,59136
2016-08-04T11:21:28.141Z,49056
2016-08-04T11:23:26.244Z,43968
2016-08-04T11:24:27.253Z,49888
2016-08-04T11:25:27.527Z,83104
2016-08-04T11:26:28.191Z,68800
2016-08-04T11:27:28.658Z,56800
2016-08-04T11:28:28.422Z,59360
2016-08-04T11:29:28.668Z,62304
2016-08-04T11:30:28.974Z,67936
2016-08-04T11:31:27.555Z,66176
2016-08-04T11:32:26.926Z,62112
2016-08-04T11:33:28.816Z,52928
2016-08-04T11:34:28.409Z,60544
2016-08-04T11:35:27.508Z,60992
2016-08-04T11:36:29.337Z,45472
2016-08-04T11:38:27.744Z,34752
2016-08-04T11:39:27.678Z,34464
2016-08-04T11:40:28.439Z,33952
2016-08-04T11:41:29.820Z,33504
2016-08-04T11:42:29.281Z,34528
2016-08-04T11:43:28.714Z,35104
2016-08-04T11:44:28.077Z,33408
2016-08-04T11:45:28.626Z,35200
2016-08-04T11:46:28.820Z,36928
2016-08-04T11:47:28.488Z,37504
2016-08-04T11:48:31.387Z,37696
2016-08-04T11:49:29.705Z,39904
2016-08-04T11:50:29.009Z,42208
2016-08-04T11:51:28.948Z,42400
2016-08-04T11:52:29.489Z,42464
2016-08-04T11:53:29.435Z,41408
2016-08-04T11:54:27.481Z,46688
2016-08-04T11:55:27.598Z,52864
2016-08-04T11:56:29.196Z,54624
2016-08-04T11:57:28.549Z,54240
2016-08-04T11:58:27.875Z,41632
2016-08-04T11:59:29.083Z,42656
2016-08-04T12:00:29.305Z,44032
2016-08-04T12:01:30.122Z,52384
2016-08-04T12:02:30.707Z,57344
2016-08-04T12:03:30.428Z,40640
2016-08-04T12:04:29.092Z,35392
2016-08-04T12:05:30.373Z,32864
2016-08-04T12:06:29.374Z,32416
2016-08-04T12:08:31.204Z,44960
2016-08-04T12:09:29.413Z,39264
2016-08-04T12:10:29.431Z,50592
2016-08-04T12:11:28.939Z,63232
2016-08-04T12:12:32.692Z,53696
2016-08-04T12:13:30.289Z,53312
2016-08-04T12:14:28.583Z,48192
2016-08-04T12:15:29.286Z,56480
2016-08-04T12:16:31.574Z,68384
2016-08-04T12:17:30.142Z,94112
2016-08-04T12:18:30.136Z,72160
2016-08-04T12:19:30.414Z,56000
2016-08-04T12:20:29.420Z,52672
2016-08-04T12:21:30.171Z,48128
2016-08-04T12:23:30.243Z,63456
2016-08-04T12:24:30.462Z,43680
2016-08-04T12:25:30.403Z,50240
2016-08-04T12:26:30.984Z,56128
2016-08-04T12:27:30.346Z,54368
2016-08-04T12:28:30.790Z,49792
2016-08-04T12:29:29.967Z,42272
2016-08-04T12:30:32.029Z,85984
2016-08-04T12:31:29.971Z,40160
2016-08-04T12:32:30.058Z,40800
2016-08-04T12:33:28.625Z,41504
2016-08-04T12:34:31.507Z,43264
2016-08-04T12:35:31.200Z,53376
2016-08-04T12:36:29.609Z,52384
2016-08-04T12:38:30.742Z,57536
2016-08-04T12:39:31.944Z,39104
2016-08-04T12:40:29.068Z,39008
2016-08-04T12:41:29.978Z,48160
2016-08-04T12:42:29.646Z,38176
2016-08-04T12:43:31.899Z,37600
2016-08-04T12:44:30.285Z,34976
2016-08-04T12:45:31.201Z,38944
2016-08-04T12:46:31.116Z,42560
2016-08-04T12:47:30.853Z,45440
2016-08-04T12:48:33.128Z,49056
2016-08-04T12:49:30.114Z,41568
2016-08-04T12:50:30.056Z,43840
2016-08-04T12:51:31.963Z,42432
2016-08-04T12:53:30.910Z,52416
2016-08-04T12:54:30.863Z,54496
2016-08-04T12:55:31.887Z,49536
2016-08-04T12:56:32.437Z,52736
2016-08-04T12:57:31.169Z,54912
2016-08-04T12:58:31.908Z,59264
2016-08-04T12:59:32.041Z,51712
2016-08-04T13:00:31.961Z,58208
2016-08-04T13:01:31.987Z,50336
2016-08-04T13:02:31.238Z,45984
2016-08-04T13:03:31.151Z,36608
2016-08-04T13:04:32.754Z,38464
2016-08-04T13:05:31.572Z,68608
2016-08-04T13:06:33.870Z,63552
2016-08-04T13:08:31.891Z,45024
2016-08-04T13:09:31.847Z,54080
2016-08-04T13:10:33.336Z,44000
2016-08-04T13:11:32.391Z,43072
2016-08-04T13:12:32.282Z,48384
2016-08-04T13:13:32.535Z,53152
2016-08-04T13:14:30.756Z,54656
2016-08-04T13:15:31.053Z,56832
2016-08-04T13:16:30.999Z,47360
2016-08-04T13:17:32.708Z,38656
2016-08-04T13:18:31.119Z,39680
2016-08-04T13:19:32.677Z,37504
2016-08-04T13:20:32.422Z,32736
2016-08-04T13:21:32.094Z,30848
2016-08-04T13:22:31.167Z,32544
2016-08-04T13:23:31.777Z,42624
2016-08-04T13:24:35.426Z,39616
2016-08-04T13:25:33.526Z,38752
2016-08-04T13:26:32.123Z,56896
2016-08-04T13:27:31.910Z,56448
2016-08-04T13:28:31.358Z,55648
2016-08-04T13:29:32.864Z,52192
2016-08-04T13:30:32.011Z,36672
2016-08-04T13:31:33.839Z,32288
2016-08-04T13:32:34.026Z,30976
2016-08-04T13:33:34.141Z,34624
2016-08-04T13:34:32.531Z,34496
2016-08-04T13:35:33.891Z,33600
2016-08-04T13:36:35.187Z,33088
2016-08-04T13:37:32.709Z,32832
2016-08-04T13:38:32.607Z,33952
2016-08-04T13:39:32.040Z,39584
2016-08-04T13:40:31.332Z,42528
2016-08-04T13:41:34.572Z,40704
2016-08-04T13:42:32.640Z,40128
2016-08-04T13:43:33.494Z,41952
2016-08-04T13:44:32.325Z,41120
2016-08-04T13:45:33.320Z,40128
2016-08-04T13:46:34.101Z,37920